San Jose Del Cabo, Mexico

5:31 PM MDT on May 28, 2015 (GMT -0600)
Los Cabos International | | Change Station
CLOSE
Current Station
Airport
Location: San Jose del Cabo,
Elevation: 358 ft
Nearby Weather Stations

Elev 358 ft 23.15 °N, 109.72 °W | Updated 45 minutes ago

Clear
Clear
90 °F
Feels Like 88 °F
N
21
Wind Variable Wind from ESE

Today
High -- | Low -- °F
--% Chance of Precip.
Yesterday
High -- | Low -- °F
Precip. -- in
6:33 AM 7:59 PM
Waxing Gibbous, 79% visible
Pressure 29.86 in
Visibility 15.0 miles
Clouds Clear
Heat Index 88 °F
Dew Point 57 °F
Humidity 33%
Rainfall 0.00 in
Snow Depth Not available.
UV 5 out of 12
Pollen Not available.
Air Quality Not available.
Flu Activity Not available.
METAR MMSD 282246Z 12018KT 15SM SKC 32/14 A2986 RMK SC

More Conditions Fewer Conditions

Pressure 29.86 in
Visibility 15.0 miles
Clouds Clear
Heat Index 88 °F
Dew Point 57 °F
Humidity 33%
Rainfall 0.00 in
Snow Depth Not available.
UV 5 out of 12
Pollen Not available.
Air Quality Not available.
Flu Activity Not available.
METAR MMSD 282246Z 12018KT 15SM SKC 32/14 A2986 RMK SC

More Conditions Fewer Conditions

10-Day Weather Forecast

Almanac

Astronomy

May. 28, 2015 Rise Set
Actual Time
Civil Twilight
Nautical Twilight
Astronomical Twilight
Moon
Length of Visible Light
Length of Day
Tomorrow will be .
, % of the Moon is Illuminated

Today's Extremes

Country Highs Country Lows

Community

WunderPhotos

Upload Photos

1,825,093 photos uploaded!

WunderBlogs® & News

Nearby

Air Quality

  Air Quality AQ Index Pollutant
Not available.

Snow Depth

Station Depth Elevation

Earthquake Activity

City Distance Mag. Time & Date
Minimum magnitude displayed is 2.5.

Coastal Water Temperatures

Place Temperature

Stations

Nearby Weather Stations

Station Location Temp. Windchill Dew Point Humidity Wind Precip. Elev Updated Type